Skip Navigation

Christman Field Latest Observations

Switch to metric unitsOther observation timesWeekly graphs

Date Time
MST
Temp
°F
RH
%
DewPt
°F
Wind
mph
Dir
°
Gust
mph
Dir
°
Press
in Hg
Solar
W/m^2
Prec
in
2024-06-22 00:15 58.5 72.6 49.7 2.6 305 3.9 276 24.936 0.2 0.00
2024-06-22 00:10 57.3 74.2 49.2 2.4 277 3.8 274 24.939 0.2 0.00
2024-06-22 00:05 56.6 78.5 50.0 2.9 270 4.1 302 24.938 0.2 0.00
2024-06-22 00:00 56.8 78.0 50.0 4.2 302 5.2 275 24.935 0.2 0.00
2024-06-21 23:55 57.8 76.6 50.5 2.8 282 4.8 247 24.931 0.2 0.00
2024-06-21 23:50 58.7 72.8 50.0 3.1 354 4.3 9 24.931 0.2 0.00
2024-06-21 23:45 59.0 72.6 50.2 2.5 303 3.2 261 24.933 0.2 0.00
2024-06-21 23:40 60.1 70.2 50.4 3.9 269 4.6 285 24.937 0.2 0.00
2024-06-21 23:35 59.9 69.9 50.0 2.6 268 3.4 268 24.941 0.2 0.00
2024-06-21 23:30 59.9 70.5 50.3 1.5 312 2.5 320 24.945 0.2 0.00
2024-06-21 23:25 59.5 69.6 49.5 2.9 255 4.1 228 24.941 0.2 0.00
2024-06-21 23:20 59.1 74.0 50.8 4.0 232 4.8 230 24.942 0.2 0.00
2024-06-21 23:15 60.5 71.5 51.2 5.9 279 7.9 338 24.942 0.2 0.00
2024-06-21 23:10 61.0 67.8 50.3 7.8 353 9.4 355 24.938 0.2 0.00
2024-06-21 23:05 60.1 67.5 49.3 8.8 351 10.1 338 24.938 0.2 0.00
2024-06-21 23:00 59.1 71.8 50.0 7.1 2 9.0 6 24.943 0.2 0.00
2024-06-21 22:55 59.1 73.4 50.6 3.6 4 6.1 10 24.945 0.2 0.00
2024-06-21 22:50 58.8 72.5 50.0 2.5 314 4.0 304 24.944 0.2 0.00
2024-06-21 22:45 58.8 74.1 50.6 4.3 305 5.3 318 24.946 0.2 0.00
2024-06-21 22:40 58.7 73.6 50.3 5.7 322 6.7 317 24.949 0.2 0.00
2024-06-21 22:35 59.1 73.2 50.5 5.9 308 6.9 326 24.950 0.2 0.00
2024-06-21 22:30 59.8 71.3 50.5 5.4 321 6.5 339 24.950 0.2 0.00
2024-06-21 22:25 60.5 67.8 49.8 4.5 324 6.4 352 24.951 0.2 0.00
2024-06-21 22:20 59.8 68.3 49.4 2.9 356 4.8 0 24.952 0.2 0.00
2024-06-21 22:15 59.2 72.0 50.2 3.3 90 7.3 10 24.952 0.2 0.00
2024-06-21 22:10 59.2 72.3 50.3 8.3 8 9.7 343 24.951 0.2 0.00
2024-06-21 22:05 59.9 71.4 50.6 6.7 341 8.6 343 24.956 0.2 0.00
2024-06-21 22:00 60.9 68.6 50.5 8.6 356 10.8 342 24.961 0.2 0.00
2024-06-21 21:55 61.3 67.2 50.3 8.6 352 11.0 352 24.962 0.2 0.00
2024-06-21 21:50 61.2 66.6 50.0 6.9 348 8.6 4 24.961 0.2 0.00